Time;durP1;ratioP1;P1;durP2;ratioP2;P2;SDS_P1;SDS_P2;PMS_P1;PMS_P2;Temp;Humidity;BMP_temperature;BMP_pressure;BME280_temperature;BME280_humidity;BME280_pressure;Samples;Min_cycle;Max_cycle;Signal;HPM_P1;HPM_P2
2022/03/10 05:04:48;;;;;;;13.13;8.23;;;;;;;1.99;59.23;101412.44;6500806;27;20076;-89
2022/03/10 05:32:34;;;;;;;10.05;6.12;;;;;;;1.91;56.63;101452.78;6498881;27;20049;-89
2022/03/10 05:35:38;;;;;;;9.65;5.50;;;;;;;1.90;56.73;101456.38;6497054;27;33977;-89
2022/03/10 05:38:41;;;;;;;11.75;6.12;;;;;;;1.98;56.38;101458.53;6496470;27;34373;-89
2022/03/10 05:41:44;;;;;;;8.60;5.55;;;;;;;2.02;56.41;101457.41;6462141;26;32526;-88
2022/03/10 05:44:47;;;;;;;10.10;6.07;;;;;;;1.99;55.64;101465.56;6470553;27;35149;-88
2022/03/10 05:47:52;;;;;;;7.85;4.95;;;;;;;2.02;56.71;101473.34;6473375;27;35439;-88
2022/03/10 05:59:10;;;;;;;10.93;6.37;;;;;;;1.98;55.12;101480.63;6486312;27;20085;-88
2022/03/10 06:10:22;;;;;;;9.98;5.75;;;;;;;2.14;54.38;101492.97;6504981;27;20084;-90
2022/03/10 06:13:36;;;;;;;9.65;5.20;;;;;;;2.11;53.91;101499.34;6491363;27;33942;-89
2022/03/10 06:16:40;;;;;;;8.98;5.03;;;;;;;2.17;54.44;101512.22;6490978;27;33674;-89
2022/03/10 06:19:44;;;;;;;10.95;6.25;;;;;;;2.26;54.78;101513.47;6478837;27;32686;-89
2022/03/10 06:22:46;;;;;;;9.27;5.32;;;;;;;2.42;54.45;101513.34;6482877;27;32560;-89
2022/03/10 06:25:49;;;;;;;9.95;5.45;;;;;;;2.42;54.09;101516.00;6483460;27;33115;-89
2022/03/10 06:28:52;;;;;;;7.12;4.90;;;;;;;2.29;55.26;101521.25;6505937;27;34261;-89
2022/03/10 06:31:54;;;;;;;8.60;5.20;;;;;;;2.29;55.59;101523.91;6493699;27;34237;-89
2022/03/10 06:35:00;;;;;;;9.93;5.28;;;;;;;2.39;54.80;101525.00;6479104;27;32857;-89
2022/03/10 06:38:04;;;;;;;13.15;5.68;;;;;;;2.44;54.72;101530.06;5977062;27;13756211;-89
2022/03/10 06:41:07;;;;;;;8.93;5.55;;;;;;;2.33;55.48;101543.16;6478784;27;33248;-89
2022/03/10 06:44:10;;;;;;;16.60;6.18;;;;;;;2.40;55.24;101545.34;6477695;27;32640;-89
2022/03/10 06:47:13;;;;;;;10.68;6.03;;;;;;;2.47;55.84;101543.16;6494543;27;34013;-89
2022/03/10 06:50:17;;;;;;;11.70;5.65;;;;;;;2.44;54.52;101541.53;6492189;27;33918;-89
2022/03/10 06:53:19;;;;;;;10.40;5.32;;;;;;;2.50;54.14;101549.09;6498191;27;34009;-89
2022/03/10 06:56:22;;;;;;;11.63;5.22;;;;;;;2.59;54.15;101560.97;6498539;27;35029;-89
2022/03/10 06:59:25;;;;;;;7.65;5.20;;;;;;;2.66;52.81;101559.66;6498486;27;34563;-89
2022/03/10 07:02:29;;;;;;;10.27;5.32;;;;;;;2.82;53.04;101569.28;6479866;27;33095;-89
2022/03/10 07:05:32;;;;;;;9.68;5.03;;;;;;;3.02;51.65;101570.66;6497813;27;35281;-91
2022/03/10 07:08:36;;;;;;;9.88;5.68;;;;;;;3.20;50.54;101568.59;6478858;27;33601;-90
2022/03/10 07:11:39;;;;;;;9.85;4.68;;;;;;;3.41;50.05;101567.19;6479097;27;33384;-90
2022/03/10 07:14:41;;;;;;;9.65;5.50;;;;;;;3.53;49.34;101561.03;6485770;27;32712;-90
2022/03/10 07:17:44;;;;;;;10.70;5.35;;;;;;;3.49;49.40;101566.69;6497817;27;34112;-90
2022/03/10 07:20:48;;;;;;;8.73;4.62;;;;;;;2.98;49.71;101567.34;6478972;27;32529;-90
2022/03/10 07:23:50;;;;;;;13.52;5.10;;;;;;;2.85;49.49;101582.37;6478917;27;33241;-90
2022/03/10 07:26:53;;;;;;;9.18;5.10;;;;;;;2.78;49.72;101589.03;6480212;27;32664;-90
2022/03/10 07:29:56;;;;;;;10.32;4.82;;;;;;;2.81;50.35;101581.75;6478365;27;32860;-89
2022/03/10 07:32:59;;;;;;;7.20;5.15;;;;;;;2.94;50.45;101584.44;6485710;27;33508;-90
2022/03/10 07:36:02;;;;;;;9.98;5.53;;;;;;;3.08;49.28;101595.06;6500725;27;34612;-89
2022/03/10 07:39:05;;;;;;;11.05;4.93;;;;;;;3.10;49.31;101593.16;6478987;27;33269;-89
2022/03/10 07:42:16;;;;;;;10.52;5.40;;;;;;;3.31;48.87;101592.72;6477543;27;33668;-89
2022/03/10 07:45:19;;;;;;;12.65;6.05;;;;;;;3.61;47.56;101595.97;6476927;27;32660;-89
2022/03/10 07:48:22;;;;;;;13.43;6.57;;;;;;;3.54;46.75;101592.03;6476743;27;32716;-89
2022/03/10 07:51:25;;;;;;;9.80;5.87;;;;;;;3.92;47.22;101588.59;6497728;27;33557;-88
2022/03/10 07:54:28;;;;;;;10.00;4.78;;;;;;;4.45;45.32;101589.34;6497048;27;35485;-89
2022/03/10 07:57:31;;;;;;;11.18;5.43;;;;;;;4.85;43.54;101582.94;6477597;27;32762;-89
2022/03/10 08:00:34;;;;;;;10.15;5.45;;;;;;;5.22;43.62;101587.31;6496535;27;32477;-89
2022/03/10 08:03:38;;;;;;;9.27;5.50;;;;;;;5.48;43.30;101575.66;6498580;27;33082;-89
2022/03/10 08:06:42;;;;;;;11.25;5.20;;;;;;;5.42;42.04;101579.63;6495644;27;33505;-89
2022/03/10 08:09:45;;;;;;;9.50;5.43;;;;;;;5.22;42.60;101581.97;6500424;27;35085;-89
2022/03/10 08:12:47;;;;;;;11.85;5.90;;;;;;;5.43;41.97;101581.31;6478074;27;32626;-89
2022/03/10 08:15:54;;;;;;;9.45;5.62;;;;;;;5.63;42.05;101578.00;6477464;27;32654;-88
2022/03/10 08:18:57;;;;;;;12.90;6.75;;;;;;;5.61;41.23;101574.59;6485408;27;33014;-89
2022/03/10 08:22:00;;;;;;;10.50;5.75;;;;;;;5.47;41.57;101590.84;6482636;27;33285;-89
2022/03/10 08:25:07;;;;;;;11.75;6.37;;;;;;;5.56;41.64;101582.13;6479825;27;33251;-89
2022/03/10 08:28:10;;;;;;;9.35;6.22;;;;;;;5.78;40.34;101589.34;6502944;27;34032;-89
2022/03/10 08:31:13;;;;;;;8.57;6.20;;;;;;;5.57;40.47;101589.16;6479592;27;32548;-89
2022/03/10 08:34:16;;;;;;;9.45;5.32;;;;;;;5.77;39.21;101582.31;6497424;27;34503;-89
2022/03/10 08:37:19;;;;;;;8.65;5.00;;;;;;;5.89;37.95;101584.03;6477053;27;32809;-89
2022/03/10 08:40:23;;;;;;;10.70;5.25;;;;;;;5.71;36.60;101587.28;6496183;27;35439;-89
2022/03/10 08:43:28;;;;;;;9.60;5.40;;;;;;;5.64;35.93;101593.06;6499524;27;34039;-89
2022/03/10 08:46:32;;;;;;;7.90;5.40;;;;;;;5.46;36.60;101594.44;6479420;27;32579;-89
2022/03/10 08:49:35;;;;;;;7.85;5.25;;;;;;;5.43;37.75;101597.34;6498110;27;33648;-90
2022/03/10 08:52:39;;;;;;;8.85;5.40;;;;;;;5.61;36.07;101587.94;6478869;27;32580;-89
2022/03/10 08:55:42;;;;;;;16.27;5.32;;;;;;;5.22;35.32;101597.97;6477683;27;34090;-89
2022/03/10 08:58:45;;;;;;;8.40;5.10;;;;;;;5.40;35.36;101600.25;6477752;27;32834;-90
2022/03/10 09:01:49;;;;;;;12.27;5.40;;;;;;;5.34;34.06;101585.53;6504694;27;35015;-90
2022/03/10 09:04:52;;;;;;;8.63;5.37;;;;;;;5.45;34.42;101606.13;6479504;27;33398;-89
2022/03/10 09:07:55;;;;;;;6.57;4.47;;;;;;;5.56;35.13;101602.66;6473053;27;32435;-88
2022/03/10 09:11:02;;;;;;;7.18;4.75;;;;;;;5.78;34.51;101607.22;6470083;27;33897;-89
2022/03/10 09:14:05;;;;;;;5.90;4.53;;;;;;;5.73;33.40;101596.00;6469453;27;34130;-88
2022/03/10 09:20:53;;;;;;;7.82;4.55;;;;;;;5.72;33.70;101599.66;6401719;27;32592;-90
2022/03/10 09:23:56;;;;;;;7.00;4.72;;;;;;;5.85;32.40;101601.28;6409272;27;33292;-90
2022/03/10 09:26:59;;;;;;;6.95;4.65;;;;;;;5.85;31.72;101598.63;6476011;27;33712;-88
2022/03/10 09:30:05;;;;;;;8.60;5.72;;;;;;;6.26;32.39;101601.75;6512177;27;35417;-88
2022/03/10 09:33:08;;;;;;;6.57;4.93;;;;;;;6.09;31.21;101600.41;6498978;27;33948;-88
2022/03/10 09:36:11;;;;;;;7.53;4.68;;;;;;;6.48;31.88;101601.78;6492889;27;34171;-90
2022/03/10 09:39:14;;;;;;;18.58;5.22;;;;;;;5.82;29.68;101612.22;6487645;27;32272;-89
2022/03/10 09:42:20;;;;;;;8.35;4.60;;;;;;;5.60;30.42;101614.78;6477259;27;32971;-89
2022/03/10 09:45:23;;;;;;;16.67;4.68;;;;;;;5.56;30.39;101608.84;6476972;27;32734;-89
2022/03/10 09:48:27;;;;;;;7.30;4.00;;;;;;;5.96;30.13;101613.84;6478553;27;32317;-88
2022/03/10 09:51:29;;;;;;;27.48;5.28;;;;;;;5.64;30.36;101622.44;6477567;27;33189;-89
2022/03/10 09:54:37;;;;;;;9.43;4.43;;;;;;;5.59;30.10;101621.13;6478075;27;32902;-88
2022/03/10 09:57:42;;;;;;;12.60;4.68;;;;;;;5.92;30.16;101607.00;6496460;27;35028;-88
2022/03/10 10:00:45;;;;;;;7.12;4.50;;;;;;;6.02;29.77;101613.37;6496020;27;34456;-88
2022/03/10 10:03:49;;;;;;;18.40;5.22;;;;;;;6.18;29.76;101605.03;6495879;27;35016;-88
2022/03/10 10:07:10;;;;;;;12.25;5.00;;;;;;;6.22;29.77;101619.00;6460524;27;34181;-89
2022/03/10 10:10:27;;;;;;;9.07;4.40;;;;;;;6.32;29.64;101617.34;6468751;27;34115;-89
2022/03/10 10:13:40;;;;;;;16.60;5.93;;;;;;;6.32;29.49;101612.84;6469394;27;34369;-88
2022/03/10 10:16:50;;;;;;;11.20;4.47;;;;;;;6.49;30.76;101629.38;6468511;27;32549;-88
2022/03/10 10:19:54;;;;;;;;;;;;;;;6.37;29.73;101621.34;6471057;27;35132;-92
2022/03/10 10:23:24;;;;;;;6.45;4.28;;;;;;;6.24;30.53;101625.94;6470913;27;34730;-88
2022/03/10 10:26:31;;;;;;;11.10;4.80;;;;;;;6.26;30.12;101616.00;6468636;27;33610;-91
2022/03/10 10:29:34;;;;;;;10.18;5.20;;;;;;;6.66;31.66;101618.19;6469739;27;32654;-88
2022/03/10 10:33:14;;;;;;;11.80;5.78;;;;;;;6.53;32.17;101620.16;6460070;27;34046;-89
2022/03/10 10:36:24;;;;;;;13.65;4.55;;;;;;;6.42;31.08;101617.47;6487433;27;32354;-89
2022/03/10 10:39:27;;;;;;;9.65;4.25;;;;;;;6.84;30.72;101621.22;6504981;27;34016;-88
2022/03/10 10:42:35;;;;;;;16.15;4.60;;;;;;;6.92;30.11;101624.13;6499089;27;33696;-88
2022/03/10 10:45:40;;;;;;;9.18;5.12;;;;;;;7.19;29.85;101622.88;6502958;27;35885;-88
2022/03/10 10:48:47;;;;;;;7.30;4.70;;;;;;;7.17;29.25;101628.38;6497636;27;33956;-88
2022/03/10 10:51:52;;;;;;;12.45;4.70;;;;;;;7.25;29.03;101625.91;6477845;27;32465;-88
2022/03/10 10:55:11;;;;;;;7.65;4.37;;;;;;;7.56;28.58;101625.22;6496340;27;34250;-88
2022/03/10 10:58:14;;;;;;;6.33;4.40;;;;;;;7.58;28.40;101624.09;6477988;27;32518;-89
2022/03/10 11:01:35;;;;;;;5.47;4.12;;;;;;;7.90;27.65;101624.09;6498529;27;34321;-89
2022/03/10 11:04:49;;;;;;;6.00;4.20;;;;;;;7.35;27.27;101626.00;6504393;27;35466;-88
2022/03/10 11:07:55;;;;;;;4.32;3.85;;;;;;;6.88;27.91;101616.50;6503074;27;34444;-89
2022/03/10 11:10:58;;;;;;;7.32;3.97;;;;;;;7.43;28.73;101620.88;6503986;27;34011;-88
2022/03/10 11:17:55;;;;;;;6.30;3.95;;;;;;;8.04;28.04;101612.16;6476324;27;34162;-89
2022/03/10 11:21:38;;;;;;;6.35;4.43;;;;;;;8.21;26.25;101608.03;6480525;27;32477;-89
2022/03/10 11:25:06;;;;;;;5.18;3.92;;;;;;;8.27;26.47;101606.66;6478648;27;34395;-88
2022/03/10 11:28:31;;;;;;;7.00;4.57;;;;;;;8.69;25.42;101604.78;6502039;27;34824;-88
2022/03/10 11:31:35;;;;;;;7.03;5.00;;;;;;;9.56;25.72;101593.34;6512497;27;34909;-89
2022/03/10 11:34:44;;;;;;;7.82;5.00;;;;;;;10.19;26.51;101591.03;6496503;27;35239;-88
2022/03/10 11:37:46;;;;;;;6.78;5.07;;;;;;;10.39;25.38;101597.22;6477186;27;33777;-88
2022/03/10 11:40:57;;;;;;;8.77;5.07;;;;;;;10.84;24.53;101587.53;6496218;27;34913;-89
2022/03/10 11:44:02;;;;;;;5.75;4.25;;;;;;;11.39;23.52;101586.63;6495610;27;34283;-89
2022/03/10 11:47:15;;;;;;;7.53;4.32;;;;;;;12.14;22.74;101592.50;6478601;27;32786;-89
2022/03/10 11:50:20;;;;;;;5.62;4.35;;;;;;;11.70;22.16;101592.47;6496805;27;34123;-88
2022/03/10 11:53:23;;;;;;;5.78;4.40;;;;;;;12.06;21.96;101578.97;6497080;27;34118;-89
2022/03/10 11:56:55;;;;;;;9.88;4.90;;;;;;;13.09;20.89;101580.66;6499861;27;34320;-89
2022/03/10 11:59:58;;;;;;;6.97;4.57;;;;;;;13.26;20.39;101583.44;6495955;27;34259;-88
2022/03/10 12:03:42;;;;;;;9.88;4.90;;;;;;;14.46;19.64;101577.28;6495578;27;33617;-89
2022/03/10 12:06:58;;;;;;;7.20;4.05;;;;;;;13.65;19.69;101580.94;6470158;27;33941;-89
2022/03/10 12:10:08;;;;;;;4.50;3.35;;;;;;;15.67;17.65;101569.69;6449280;27;32591;-89
2022/03/10 12:13:34;;;;;;;7.65;3.97;;;;;;;16.53;17.43;101577.38;6468730;27;34343;-89
2022/03/10 12:16:38;;;;;;;5.40;3.40;;;;;;;16.76;16.29;101573.75;6469306;27;33959;-90
2022/03/10 12:20:16;;;;;;;4.65;3.47;;;;;;;17.17;15.72;101567.72;6462086;27;34365;-89
2022/03/10 12:23:22;;;;;;;5.22;3.75;;;;;;;18.41;14.72;101565.50;6470483;27;33870;-89
2022/03/10 12:26:31;;;;;;;5.45;3.40;;;;;;;19.27;14.68;101562.31;6454779;27;34055;-89
2022/03/10 12:29:35;;;;;;;5.30;3.60;;;;;;;20.54;14.07;101560.47;6500209;27;33705;-90
2022/03/10 12:32:45;;;;;;;7.22;3.90;;;;;;;21.06;12.61;101562.16;6502090;27;34874;-90
2022/03/10 12:39:48;;;;;;;4.97;3.72;;;;;;;18.92;14.09;101556.94;6494572;27;33845;-90
2022/03/10 12:43:02;;;;;;;4.82;3.70;;;;;;;21.59;13.17;101551.97;6480766;27;34521;-89
2022/03/10 12:46:09;;;;;;;6.13;4.43;;;;;;;20.45;13.90;101556.25;6495338;27;33700;-90
2022/03/10 12:49:12;;;;;;;6.62;4.22;;;;;;;20.20;14.15;101559.66;6487939;27;34007;-90
2022/03/10 12:52:25;;;;;;;4.50;3.67;;;;;;;20.80;13.80;101565.84;6495279;27;35325;-90
2022/03/10 12:55:55;;;;;;;6.10;3.80;;;;;;;20.46;13.20;101550.56;6504108;27;34382;-90
2022/03/10 12:58:58;;;;;;;4.82;3.67;;;;;;;20.82;13.08;101555.50;6496190;27;35012;-90
2022/03/10 13:02:22;;;;;;;8.27;4.50;;;;;;;19.77;13.17;101548.34;6495465;27;34275;-89
2022/03/10 13:05:29;;;;;;;5.47;3.75;;;;;;;19.75;13.90;101551.28;6478529;27;32847;-89
2022/03/10 13:08:32;;;;;;;7.68;4.00;;;;;;;19.30;13.66;101553.72;6489018;27;33326;-89
2022/03/10 13:11:38;;;;;;;5.20;4.10;;;;;;;20.74;12.64;101544.81;6477297;27;33355;-89
2022/03/10 13:14:47;;;;;;;4.90;3.55;;;;;;;19.68;13.26;101548.53;6508757;27;33553;-89
2022/03/10 13:17:52;;;;;;;4.68;3.75;;;;;;;19.36;13.78;101554.78;6480664;27;34312;-90
2022/03/10 13:20:58;;;;;;;5.18;3.62;;;;;;;19.13;13.27;101547.81;6493711;27;34159;-89
2022/03/10 13:24:01;;;;;;;3.50;3.20;;;;;;;17.34;14.15;101561.00;6495483;27;33742;-89
2022/03/10 13:27:05;;;;;;;7.30;3.28;;;;;;;16.50;15.66;101564.16;6495752;27;35028;-89
2022/03/10 13:30:17;;;;;;;6.40;3.95;;;;;;;16.90;14.76;101563.88;6497004;27;34409;-89
2022/03/10 13:33:25;;;;;;;8.15;3.90;;;;;;;16.47;14.74;101563.69;6496362;27;35464;-89
2022/03/10 13:36:28;;;;;;;5.60;3.92;;;;;;;15.76;15.74;101565.91;6477200;27;32106;-89
2022/03/10 13:39:31;;;;;;;4.03;3.55;;;;;;;16.41;15.83;101564.41;6496830;27;34388;-89
2022/03/10 13:42:34;;;;;;;5.15;4.10;;;;;;;15.40;16.66;101559.22;6496219;27;35306;-89
2022/03/10 13:45:42;;;;;;;7.50;3.87;;;;;;;13.79;17.50;101569.44;6496025;27;33933;-89
2022/03/10 13:48:49;;;;;;;6.37;4.07;;;;;;;13.22;18.44;101566.66;6496392;27;35200;-89
2022/03/10 13:51:52;;;;;;;6.37;3.67;;;;;;;13.00;18.83;101578.09;6496982;27;34086;-89
2022/03/10 13:54:55;;;;;;;7.93;4.20;;;;;;;11.80;19.02;101563.56;6496565;27;34821;-89
2022/03/10 13:57:59;;;;;;;6.30;3.80;;;;;;;10.96;19.86;101570.16;6497618;27;34366;-89
2022/03/10 14:01:05;;;;;;;6.00;3.72;;;;;;;9.86;20.62;101578.91;6497805;27;34954;-93
2022/03/10 14:04:11;;;;;;;4.75;3.65;;;;;;;9.15;21.29;101587.22;6476321;27;32169;-92
2022/03/10 14:07:14;;;;;;;8.60;3.80;;;;;;;8.81;21.73;101584.06;6478410;27;33208;-88
2022/03/10 14:10:27;;;;;;;5.85;4.00;;;;;;;8.79;21.70;101577.97;6496877;27;33997;-88
2022/03/10 14:13:37;;;;;;;5.80;4.18;;;;;;;8.42;22.00;101570.47;6496314;27;33629;-88
2022/03/10 14:16:53;;;;;;;4.78;3.75;;;;;;;8.24;23.05;101570.22;6477111;27;32248;-87
2022/03/10 14:20:03;;;;;;;8.02;3.95;;;;;;;8.22;23.45;101566.84;6495974;27;33817;-89
2022/03/10 14:23:07;;;;;;;5.18;3.87;;;;;;;7.77;22.20;101585.87;6496324;27;34825;-87
2022/03/10 14:26:17;;;;;;;5.22;3.50;;;;;;;7.47;22.77;101571.41;6497912;27;34788;-89
2022/03/10 14:29:20;;;;;;;8.77;4.07;;;;;;;7.42;22.88;101576.28;6496469;27;34630;-87
2022/03/10 14:32:25;;;;;;;5.93;3.70;;;;;;;7.29;23.43;101580.97;6504900;27;34723;-88
2022/03/10 14:35:33;;;;;;;4.90;3.60;;;;;;;7.08;22.82;101586.28;6480693;27;33051;-89
2022/03/10 14:38:37;;;;;;;6.80;4.57;;;;;;;6.68;23.06;101580.62;6498395;27;34607;-89
2022/03/10 14:41:40;;;;;;;7.20;3.50;;;;;;;6.45;22.31;101579.78;6498900;27;34625;-88
2022/03/10 14:44:43;;;;;;;3.42;2.87;;;;;;;6.43;22.32;101581.69;6500045;27;33901;-89
2022/03/10 14:47:49;;;;;;;5.87;3.20;;;;;;;6.26;22.04;101585.69;6491352;27;34012;-89
2022/03/10 14:50:53;;;;;;;3.50;3.00;;;;;;;6.32;21.96;101580.75;6497524;27;34155;-89
2022/03/10 14:53:56;;;;;;;5.03;3.42;;;;;;;6.33;21.97;101585.09;6497054;27;34291;-88
2022/03/10 14:56:59;;;;;;;7.43;3.62;;;;;;;6.08;22.13;101586.19;6495724;27;34410;-88
2022/03/10 15:00:06;;;;;;;8.82;3.60;;;;;;;5.91;22.45;101589.28;6487355;27;34032;-88
2022/03/10 15:03:09;;;;;;;5.70;3.55;;;;;;;5.88;23.24;101590.38;6479187;27;34025;-90
2022/03/10 15:06:13;;;;;;;5.10;3.92;;;;;;;5.86;23.43;101600.31;6497186;27;34150;-89
2022/03/10 15:09:16;;;;;;;8.18;4.68;;;;;;;5.76;23.75;101601.12;6497112;27;33912;-88
2022/03/10 15:12:19;;;;;;;6.70;3.87;;;;;;;5.75;23.61;101600.28;6477329;27;33989;-88
2022/03/10 15:19:59;;;;;;;7.32;3.97;;;;;;;5.62;23.49;101607.53;6491658;27;20062;-89
2022/03/10 15:27:06;;;;;;;4.65;3.65;;;;;;;5.44;23.33;101623.97;6493102;27;20054;-89
2022/03/10 15:30:09;;;;;;;5.30;3.83;;;;;;;5.29;23.45;101625.06;6491137;27;34829;-89
2022/03/10 15:58:13;;;;;;;8.15;4.93;;;;;;;3.86;31.18;101671.56;6496982;27;20077;-88
2022/03/10 16:01:17;;;;;;;9.88;5.47;;;;;;;3.68;31.30;101673.66;6476667;27;33598;-89
2022/03/10 16:04:20;;;;;;;11.12;4.78;;;;;;;3.56;31.74;101671.81;6495424;27;33870;-88
2022/03/10 16:07:23;;;;;;;8.40;5.40;;;;;;;3.46;31.76;101690.19;6497955;27;34136;-89
2022/03/10 16:10:27;;;;;;;11.12;5.60;;;;;;;3.37;31.89;101682.81;6497408;27;34580;-88
2022/03/10 16:13:30;;;;;;;14.50;5.80;;;;;;;3.35;32.06;101687.37;6496250;27;34017;-89
2022/03/10 16:16:32;;;;;;;6.10;4.82;;;;;;;3.20;32.14;101699.84;6496697;27;34081;-89
2022/03/10 16:19:37;;;;;;;28.65;6.57;;;;;;;3.07;32.41;101704.22;6496831;27;33929;-89
2022/03/10 16:22:43;;;;;;;10.20;5.62;;;;;;;2.98;32.70;101710.12;6496188;27;34863;-89
2022/03/10 16:25:46;;;;;;;20.17;5.93;;;;;;;2.85;32.93;101713.56;6496504;27;33998;-88
2022/03/10 16:28:49;;;;;;;12.63;5.97;;;;;;;2.70;33.48;101719.84;6497138;27;34277;-88
2022/03/10 16:31:52;;;;;;;12.23;6.10;;;;;;;2.65;33.54;101722.75;6501742;27;34807;-88
2022/03/10 16:38:57;;;;;;;10.65;5.72;;;;;;;2.46;34.05;101725.69;6493807;27;20070;-89
2022/03/10 16:42:01;;;;;;;14.10;6.47;;;;;;;2.34;34.20;101737.06;6491209;27;34311;-89
